Time;durP1;ratioP1;P1;durP2;ratioP2;P2;SDS_P1;SDS_P2;PMS_P1;PMS_P2;Temp;Humidity;BMP_temperature;BMP_pressure;BME280_temperature;BME280_humidity;BME280_pressure;Samples;Min_cycle;Max_cycle;Signal;HPM_P1;HPM_P2
2023/09/20 00:02:17;;;;;;;0.37;0.30;;;;;;;18.58;65.13;100007.44;5327444;26;34045;-79
2023/09/20 00:04:47;;;;;;;0.60;0.17;;;;;;;18.71;64.25;99998.56;5327075;26;32343;-80
2023/09/20 00:07:16;;;;;;;0.47;0.25;;;;;;;18.54;64.89;100005.09;5327729;26;33483;-79
2023/09/20 00:09:44;;;;;;;0.40;0.20;;;;;;;18.68;63.85;100000.47;5309160;26;32797;-79
2023/09/20 00:12:12;;;;;;;0.68;0.35;;;;;;;18.52;64.44;100010.56;5327549;26;35081;-79
2023/09/20 00:14:39;;;;;;;0.10;0.10;;;;;;;18.49;64.89;100005.44;5345446;26;33366;-80
2023/09/20 00:17:07;;;;;;;2.72;1.27;;;;;;;18.54;64.62;100008.62;5327342;26;34693;-79
2023/09/20 00:19:38;;;;;;;0.30;0.30;;;;;;;18.50;64.79;100011.62;5327052;26;32977;-80
2023/09/20 00:22:07;;;;;;;0.20;0.20;;;;;;;18.84;63.28;100026.06;5327164;26;34725;-80
2023/09/20 00:24:35;;;;;;;0.32;0.32;;;;;;;18.59;63.88;100018.97;5345909;26;33703;-79
2023/09/20 00:27:03;;;;;;;2.20;0.47;;;;;;;18.36;64.66;100015.31;5309017;26;32892;-79
2023/09/20 00:29:31;;;;;;;0.70;0.45;;;;;;;18.30;65.23;100021.09;5327196;26;33028;-79
2023/09/20 00:31:59;;;;;;;0.52;0.52;;;;;;;18.34;65.27;100017.25;5327083;26;33205;-80
2023/09/20 00:34:27;;;;;;;1.27;0.50;;;;;;;18.37;64.95;100022.34;5327404;26;32891;-79
2023/09/20 00:36:54;;;;;;;1.27;0.75;;;;;;;18.36;64.38;100026.00;5345543;26;34684;-78
2023/09/20 00:39:23;;;;;;;2.15;1.05;;;;;;;18.31;65.00;100014.78;5327685;26;33991;-80
2023/09/20 00:41:52;;;;;;;0.82;0.50;;;;;;;18.39;64.57;100017.78;5330166;26;33812;-79
2023/09/20 00:44:20;;;;;;;0.30;0.30;;;;;;;18.50;64.19;100025.00;5349321;26;33512;-80
2023/09/20 00:46:49;;;;;;;0.40;0.40;;;;;;;18.28;64.58;100017.72;5367970;26;33601;-79
2023/09/20 00:49:19;;;;;;;0.75;0.47;;;;;;;18.28;64.56;100028.41;5349705;26;33062;-80
2023/09/20 00:51:47;;;;;;;4.18;0.65;;;;;;;18.30;64.81;100032.66;5349530;26;34488;-79
2023/09/20 00:54:15;;;;;;;0.30;0.30;;;;;;;18.22;64.90;100024.31;5330926;26;34435;-79
2023/09/20 00:56:44;;;;;;;0.10;0.10;;;;;;;18.05;65.33;100025.53;5330529;26;33241;-79
2023/09/20 00:59:12;;;;;;;0.00;0.00;;;;;;;18.20;64.69;100023.59;5330299;26;34328;-80
2023/09/20 01:01:40;;;;;;;4.18;0.50;;;;;;;18.05;65.22;100017.53;5349438;26;33492;-80
2023/09/20 01:04:09;;;;;;;0.40;0.15;;;;;;;18.09;64.92;100019.03;5349203;26;32499;-79
2023/09/20 01:06:37;;;;;;;0.10;0.10;;;;;;;18.01;65.31;100013.37;5367303;26;33658;-81
2023/09/20 01:09:05;;;;;;;0.20;0.20;;;;;;;18.20;64.84;100015.56;5367241;26;33780;-80
2023/09/20 01:11:34;;;;;;;0.13;0.13;;;;;;;18.27;64.45;100015.97;5349831;26;34658;-79
2023/09/20 01:14:02;;;;;;;1.05;0.40;;;;;;;18.26;64.21;100011.59;5348942;26;32620;-79
2023/09/20 01:16:34;;;;;;;1.65;0.60;;;;;;;18.34;63.70;100017.25;5349878;26;34368;-79
2023/09/20 01:19:04;;;;;;;0.00;0.00;;;;;;;18.34;63.86;100009.22;5330972;26;34089;-79
2023/09/20 01:21:41;;;;;;;0.17;0.17;;;;;;;18.22;64.15;100008.28;5330988;26;34087;-79
2023/09/20 01:24:10;;;;;;;0.00;0.00;;;;;;;18.22;63.91;100004.75;5348621;26;32317;-79
2023/09/20 01:26:41;;;;;;;0.28;0.28;;;;;;;18.26;63.83;100006.25;5348528;26;33152;-79
2023/09/20 01:29:12;;;;;;;0.57;0.57;;;;;;;18.22;64.06;99999.41;5350120;26;33688;-80
2023/09/20 01:31:40;;;;;;;0.30;0.30;;;;;;;18.16;64.35;100004.25;5368010;26;34906;-79
2023/09/20 01:34:09;;;;;;;1.05;0.95;;;;;;;18.07;64.20;100009.41;5368150;26;33619;-80
2023/09/20 01:36:37;;;;;;;0.35;0.35;;;;;;;17.89;64.55;100016.87;5367606;26;34649;-79
2023/09/20 01:39:09;;;;;;;0.00;0.00;;;;;;;17.93;64.30;100013.03;5348791;26;33810;-79
2023/09/20 01:41:37;;;;;;;0.70;0.20;;;;;;;17.87;64.66;100010.81;5367636;26;34604;-79
2023/09/20 01:44:06;;;;;;;0.10;0.08;;;;;;;17.86;64.77;100017.97;5348945;26;33330;-80
2023/09/20 01:46:34;;;;;;;0.10;0.10;;;;;;;17.94;64.64;100016.56;5367404;26;33772;-81
2023/09/20 01:49:05;;;;;;;0.10;0.05;;;;;;;17.86;64.58;100012.63;5367398;26;33330;-80
2023/09/20 01:51:33;;;;;;;3.40;0.73;;;;;;;17.89;64.79;100011.53;5368023;26;33604;-81
2023/09/20 01:54:00;;;;;;;0.20;0.20;;;;;;;17.80;65.02;100023.75;5349163;26;33403;-80
2023/09/20 01:56:28;;;;;;;0.20;0.20;;;;;;;17.76;65.04;100018.75;5348620;26;32864;-80
2023/09/20 01:58:57;;;;;;;0.20;0.15;;;;;;;17.66;65.30;100015.81;5349410;26;34094;-80
2023/09/20 02:01:25;;;;;;;0.10;0.10;;;;;;;17.62;65.34;100020.50;5367876;26;34195;-80
2023/09/20 02:03:55;;;;;;;0.30;0.25;;;;;;;17.62;65.50;100019.66;5367757;26;33660;-81
2023/09/20 02:06:23;;;;;;;0.20;0.20;;;;;;;17.69;65.16;100017.41;5347170;26;33357;-80
2023/09/20 02:08:52;;;;;;;7.43;1.25;;;;;;;17.64;65.35;100013.25;5346696;26;33293;-80
2023/09/20 02:11:20;;;;;;;0.55;0.55;;;;;;;17.62;65.54;100020.50;5367339;26;34842;-81
2023/09/20 02:13:48;;;;;;;0.50;0.40;;;;;;;17.55;65.68;100013.87;5330652;26;32594;-79
2023/09/20 02:16:17;;;;;;;0.25;0.25;;;;;;;17.58;65.25;100008.34;5365848;26;34690;-79
2023/09/20 02:18:48;;;;;;;0.47;0.47;;;;;;;17.88;63.65;100015.19;5347111;26;32772;-79
2023/09/20 02:21:16;;;;;;;0.60;0.43;;;;;;;17.67;64.21;100009.50;5346894;26;33088;-79
2023/09/20 02:23:43;;;;;;;0.15;0.15;;;;;;;17.91;63.12;100014.97;5346827;26;32217;-79
2023/09/20 02:26:12;;;;;;;1.00;0.52;;;;;;;17.66;64.24;100019.34;5347240;26;33979;-80
2023/09/20 02:28:40;;;;;;;20.27;1.25;;;;;;;17.46;64.97;100030.53;5368161;26;34444;-79
2023/09/20 02:31:11;;;;;;;0.30;0.30;;;;;;;17.32;65.66;100022.59;5329944;26;33318;-79
2023/09/20 02:33:39;;;;;;;0.57;0.28;;;;;;;17.47;65.23;100015.34;5367655;26;32426;-81
2023/09/20 02:36:07;;;;;;;0.47;0.20;;;;;;;17.50;65.20;100015.16;5367498;26;34291;-80
2023/09/20 02:38:37;;;;;;;0.10;0.10;;;;;;;17.45;65.05;100015.47;5348691;26;32973;-81
2023/09/20 02:41:05;;;;;;;0.00;0.00;;;;;;;17.31;65.82;100010.22;5349698;26;33085;-80
2023/09/20 02:43:33;;;;;;;0.00;0.00;;;;;;;17.31;65.80;100015.56;5363985;26;93892;-80
2023/09/20 02:46:05;;;;;;;0.10;0.10;;;;;;;17.32;65.50;100017.25;5348134;26;33855;-80
2023/09/20 02:48:34;;;;;;;0.98;0.62;;;;;;;17.45;65.13;100026.16;5367879;26;34381;-80
2023/09/20 02:51:03;;;;;;;5.35;0.85;;;;;;;17.30;65.54;100024.53;5349081;26;33165;-79
2023/09/20 02:53:32;;;;;;;0.15;0.15;;;;;;;17.34;65.41;100024.22;5349104;26;33584;-79
2023/09/20 02:56:00;;;;;;;0.10;0.10;;;;;;;17.20;65.83;100031.47;5349242;26;33625;-79
2023/09/20 02:58:27;;;;;;;0.32;0.20;;;;;;;17.32;65.41;100025.28;5367144;26;33090;-79
2023/09/20 03:00:55;;;;;;;0.75;0.75;;;;;;;17.47;64.61;100020.69;5348326;26;33113;-80
2023/09/20 03:03:23;;;;;;;0.73;0.37;;;;;;;17.28;65.61;100018.44;5329963;26;34511;-79
2023/09/20 03:05:51;;;;;;;0.80;0.80;;;;;;;17.34;65.36;100026.03;5348378;26;33272;-80
2023/09/20 03:08:19;;;;;;;0.32;0.28;;;;;;;17.41;64.84;100022.84;5367256;26;33626;-79
2023/09/20 03:10:48;;;;;;;1.08;0.40;;;;;;;17.35;65.18;100022.41;5349525;26;34950;-79
2023/09/20 03:13:17;;;;;;;0.65;0.20;;;;;;;17.32;65.22;100023.44;5368073;26;34328;-79
2023/09/20 03:15:48;;;;;;;6.18;1.00;;;;;;;17.33;65.27;100021.66;5348877;26;33998;-79
2023/09/20 03:18:18;;;;;;;0.30;0.30;;;;;;;17.26;65.55;100017.69;5331348;26;34270;-79
2023/09/20 03:20:48;;;;;;;2.72;0.77;;;;;;;17.29;65.20;100025.50;5331097;26;34166;-79
2023/09/20 03:23:17;;;;;;;0.37;0.32;;;;;;;17.20;65.43;100024.31;5349069;26;34312;-79
2023/09/20 03:25:45;;;;;;;0.00;0.00;;;;;;;17.18;65.67;100038.69;5347816;26;33494;-79
2023/09/20 03:28:13;;;;;;;0.82;0.30;;;;;;;17.24;65.62;100030.28;5366905;26;32987;-80
2023/09/20 03:30:42;;;;;;;0.20;0.20;;;;;;;17.27;65.18;100027.41;5348771;26;34256;-79
2023/09/20 03:33:11;;;;;;;0.90;0.20;;;;;;;17.29;65.23;100029.03;5348395;26;32618;-80
2023/09/20 03:35:39;;;;;;;0.25;0.15;;;;;;;17.34;65.14;100026.91;5367472;26;34846;-80
2023/09/20 03:38:08;;;;;;;0.40;0.40;;;;;;;17.34;65.36;100021.56;5348982;26;34662;-80
2023/09/20 03:40:38;;;;;;;0.10;0.08;;;;;;;17.30;65.38;100024.53;5348277;26;32973;-80
2023/09/20 03:43:08;;;;;;;0.10;0.10;;;;;;;17.12;65.97;100024.81;5367570;26;33605;-80
2023/09/20 03:45:37;;;;;;;0.68;0.32;;;;;;;17.09;66.09;100024.16;5348160;26;32922;-80
2023/09/20 03:48:05;;;;;;;0.43;0.43;;;;;;;17.07;66.13;100018.94;5385883;26;33955;-78
2023/09/20 03:50:33;;;;;;;0.10;0.10;;;;;;;17.09;65.90;100018.81;5330885;26;34496;-78
2023/09/20 03:53:01;;;;;;;0.68;0.68;;;;;;;17.33;65.10;100017.19;5368607;26;33590;-78
2023/09/20 03:55:29;;;;;;;0.60;0.60;;;;;;;17.44;64.71;100016.44;5350307;26;34018;-80
2023/09/20 03:57:57;;;;;;;0.00;0.00;;;;;;;17.43;64.55;100019.22;5368497;26;34803;-80
2023/09/20 04:00:28;;;;;;;0.00;0.00;;;;;;;17.44;64.66;100018.25;5368548;26;34417;-79
2023/09/20 04:02:58;;;;;;;0.00;0.00;;;;;;;17.44;64.65;100016.44;5368470;26;34286;-79
2023/09/20 04:05:27;;;;;;;0.00;0.00;;;;;;;17.50;64.31;100017.81;5331779;26;33963;-78
2023/09/20 04:08:12;;;;;;;0.17;0.17;;;;;;;17.49;64.41;100019.66;5354166;26;33967;-80
2023/09/20 04:10:40;;;;;;;0.10;0.05;;;;;;;17.48;64.57;100022.44;5368013;26;34771;-80
2023/09/20 04:13:09;;;;;;;0.00;0.00;;;;;;;17.38;65.17;100022.22;5349957;26;32188;-81
2023/09/20 04:15:40;;;;;;;0.08;0.08;;;;;;;17.44;64.66;100021.78;5368494;26;33615;-80
2023/09/20 04:18:09;;;;;;;1.20;0.52;;;;;;;17.43;64.63;100019.22;5349630;26;33130;-80
2023/09/20 04:20:39;;;;;;;0.10;0.10;;;;;;;17.33;65.15;100024.34;5331360;26;33726;-80
2023/09/20 04:23:09;;;;;;;0.62;0.62;;;;;;;17.41;65.09;100017.50;5350207;26;33945;-80
2023/09/20 04:25:38;;;;;;;0.13;0.10;;;;;;;17.28;65.07;100026.44;5368140;26;34353;-80
2023/09/20 04:28:09;;;;;;;0.57;0.57;;;;;;;17.18;65.53;100028.03;5349377;26;33353;-79
2023/09/20 04:30:38;;;;;;;0.60;0.22;;;;;;;17.08;66.23;100031.31;5349702;26;33324;-79
2023/09/20 04:33:07;;;;;;;0.00;0.00;;;;;;;17.25;65.64;100027.50;5350168;26;32433;-79
2023/09/20 04:35:37;;;;;;;0.10;0.10;;;;;;;17.27;65.88;100030.06;5368103;26;33896;-80
2023/09/20 04:38:05;;;;;;;0.15;0.15;;;;;;;17.48;65.10;100028.62;5350770;26;34073;-79
2023/09/20 04:40:34;;;;;;;0.30;0.17;;;;;;;17.40;64.91;100031.81;5349017;26;35417;-80
2023/09/20 04:43:02;;;;;;;2.83;0.43;;;;;;;17.42;65.25;100034.34;5367957;26;34422;-80
2023/09/20 04:45:31;;;;;;;0.25;0.25;;;;;;;17.39;65.13;100042.59;5364946;26;33722;-80
2023/09/20 04:47:59;;;;;;;0.20;0.10;;;;;;;17.54;64.62;100036.19;5328357;26;33428;-80
2023/09/20 04:50:26;;;;;;;1.12;0.20;;;;;;;17.28;65.35;100045.13;5327738;26;33998;-79
2023/09/20 04:52:54;;;;;;;0.43;0.43;;;;;;;17.16;65.91;100046.81;5346019;26;33193;-80
2023/09/20 04:55:22;;;;;;;0.47;0.47;;;;;;;17.26;65.75;100053.22;5346687;26;33646;-79
2023/09/20 04:57:50;;;;;;;0.40;0.20;;;;;;;17.43;65.25;100040.59;5328142;26;34716;-79
2023/09/20 05:00:26;;;;;;;0.20;0.20;;;;;;;17.45;65.56;100055.50;5364706;26;34114;-79
2023/09/20 05:02:54;;;;;;;0.30;0.30;;;;;;;17.55;65.59;100056.59;5328927;26;34259;-79
2023/09/20 05:05:23;;;;;;;0.50;0.50;;;;;;;17.64;65.03;100058.63;5385385;26;34936;-79
2023/09/20 05:07:52;;;;;;;0.32;0.32;;;;;;;17.64;65.47;100065.78;5345723;26;33361;-79
2023/09/20 05:10:20;;;;;;;0.22;0.22;;;;;;;17.72;65.27;100070.63;5347117;26;34183;-80
2023/09/20 05:12:48;;;;;;;0.50;0.50;;;;;;;17.80;65.23;100060.28;5346035;26;32778;-81
2023/09/20 05:15:16;;;;;;;0.30;0.30;;;;;;;17.80;65.47;100063.81;5345559;26;34100;-81
2023/09/20 05:17:45;;;;;;;0.65;0.65;;;;;;;17.96;64.96;100060.94;5366355;26;34247;-81
2023/09/20 05:20:13;;;;;;;0.55;0.55;;;;;;;17.86;65.71;100065.22;5365906;26;34736;-80
2023/09/20 05:22:41;;;;;;;0.35;0.30;;;;;;;18.02;65.31;100068.50;5346891;26;32879;-80
2023/09/20 05:25:09;;;;;;;0.45;0.45;;;;;;;18.14;65.21;100064.97;5366012;26;33707;-80
2023/09/20 05:27:37;;;;;;;4.32;0.43;;;;;;;18.08;65.83;100065.38;5328217;26;33718;-80
2023/09/20 05:30:06;;;;;;;0.68;0.68;;;;;;;18.02;66.38;100064.97;5365233;26;34004;-80
2023/09/20 05:32:35;;;;;;;0.40;0.40;;;;;;;18.31;65.65;100062.91;5346816;26;33294;-80
2023/09/20 05:35:05;;;;;;;0.55;0.55;;;;;;;18.34;65.93;100063.56;5366312;26;34576;-80
2023/09/20 05:37:32;;;;;;;0.43;0.43;;;;;;;18.68;65.41;100070.00;5367978;26;34304;-80
2023/09/20 05:40:01;;;;;;;1.90;0.95;;;;;;;18.53;66.53;100070.25;5349582;26;34438;-80
2023/09/20 05:42:29;;;;;;;0.80;0.77;;;;;;;18.65;66.61;100080.87;5325964;26;32201;-80
2023/09/20 05:44:57;;;;;;;1.60;1.20;;;;;;;18.72;66.85;100086.69;5345325;26;33706;-79
2023/09/20 05:47:25;;;;;;;0.22;0.17;;;;;;;18.72;66.82;100088.53;5325930;26;32886;-79
2023/09/20 05:49:53;;;;;;;0.55;0.55;;;;;;;18.80;67.13;100084.31;5363038;26;33941;-79
2023/09/20 05:52:21;;;;;;;0.70;0.70;;;;;;;18.93;67.21;100089.59;5324568;26;32541;-80
2023/09/20 05:54:49;;;;;;;1.45;0.43;;;;;;;19.32;65.97;100087.59;5363026;26;33530;-79
2023/09/20 05:57:18;;;;;;;1.20;0.52;;;;;;;19.67;65.04;100087.63;5343038;26;35007;-79
2023/09/20 05:59:45;;;;;;;0.62;0.62;;;;;;;19.56;65.49;100085.75;5324900;26;33438;-79
2023/09/20 06:02:14;;;;;;;1.95;0.20;;;;;;;19.30;66.70;100078.84;5343446;26;33491;-79
2023/09/20 06:04:41;;;;;;;0.20;0.20;;;;;;;19.42;66.74;100076.09;5325091;26;32801;-80
2023/09/20 06:07:09;;;;;;;0.30;0.30;;;;;;;19.49;66.97;100080.97;5343559;26;32986;-80
2023/09/20 06:09:40;;;;;;;0.37;0.37;;;;;;;19.62;66.79;100079.09;5324360;26;34123;-79
2023/09/20 06:12:08;;;;;;;0.10;0.10;;;;;;;19.75;66.65;100081.66;5305591;26;33867;-79
2023/09/20 06:14:36;;;;;;;0.82;0.65;;;;;;;20.23;65.16;100090.41;5323976;26;33425;-79
2023/09/20 06:17:06;;;;;;;1.10;0.50;;;;;;;20.37;64.93;100094.69;5324390;26;33931;-79
2023/09/20 06:19:35;;;;;;;0.37;0.37;;;;;;;20.59;64.15;100089.31;5342595;26;34222;-79
2023/09/20 06:22:09;;;;;;;1.70;0.90;;;;;;;20.52;64.34;100092.63;5326866;26;32857;-79
2023/09/20 06:24:37;;;;;;;1.12;1.08;;;;;;;20.54;64.55;100106.75;5342543;26;32820;-79
2023/09/20 06:27:04;;;;;;;0.73;0.73;;;;;;;20.54;64.45;100086.12;5324390;26;33461;-81
2023/09/20 06:29:33;;;;;;;0.10;0.10;;;;;;;20.51;64.66;100098.94;5324352;26;33360;-80
2023/09/20 06:32:02;;;;;;;1.10;1.10;;;;;;;20.58;64.92;100098.34;5342755;26;33475;-78
2023/09/20 06:34:29;;;;;;;0.30;0.30;;;;;;;20.79;64.42;100089.50;5342555;26;36471;-79
2023/09/20 06:36:57;;;;;;;0.13;0.13;;;;;;;20.85;64.06;100099.78;5342990;26;34450;-78
2023/09/20 06:39:25;;;;;;;1.23;0.85;;;;;;;21.09;63.16;100097.75;5324410;26;33646;-78
2023/09/20 06:41:53;;;;;;;0.30;0.30;;;;;;;21.12;63.39;100102.00;5327470;26;34465;-78
2023/09/20 06:44:22;;;;;;;0.50;0.50;;;;;;;21.25;63.37;100096.47;5365551;26;33611;-78
2023/09/20 06:46:50;;;;;;;0.10;0.10;;;;;;;21.33;62.62;100096.72;5364225;26;33879;-79
2023/09/20 06:49:21;;;;;;;0.20;0.20;;;;;;;21.38;62.27;100097.19;5364758;26;34619;-80
2023/09/20 06:51:49;;;;;;;0.43;0.35;;;;;;;21.36;62.04;100099.97;5327207;26;32665;-79
2023/09/20 06:54:18;;;;;;;0.30;0.25;;;;;;;21.54;60.68;100091.34;5349525;26;33850;-80
2023/09/20 06:56:45;;;;;;;1.70;0.25;;;;;;;21.61;nan;100098.78;5348339;26;33625;-79
2023/09/20 06:59:13;;;;;;;0.40;0.40;;;;;;;21.53;60.11;100101.25;5367000;26;33787;-79
2023/09/20 07:01:41;;;;;;;2.05;0.43;;;;;;;21.46;61.12;100100.09;5330880;26;32788;-79
2023/09/20 07:04:10;;;;;;;0.05;0.05;;;;;;;21.60;61.54;100099.78;5365931;26;33809;-79
2023/09/20 07:06:38;;;;;;;0.80;0.80;;;;;;;21.90;60.38;100103.50;5349768;26;33940;-80
2023/09/20 07:09:08;;;;;;;0.15;0.15;;;;;;;21.95;61.00;100098.56;5348875;26;34381;-79
2023/09/20 07:11:37;;;;;;;1.67;0.40;;;;;;;22.14;60.45;100112.16;5368471;26;33276;-80
2023/09/20 07:14:05;;;;;;;0.37;0.25;;;;;;;22.07;60.29;100105.56;5348718;26;32811;-79
2023/09/20 07:16:36;;;;;;;0.10;0.10;;;;;;;22.17;59.42;100106.53;5367957;26;34060;-79
2023/09/20 07:19:05;;;;;;;5.30;0.28;;;;;;;22.66;56.98;100107.56;5367943;26;33780;-79
2023/09/20 07:21:37;;;;;;;0.25;0.25;;;;;;;22.56;58.26;100109.38;5366272;26;33647;-79
2023/09/20 07:24:08;;;;;;;0.47;0.25;;;;;;;22.60;58.76;100112.63;5350637;26;33709;-79
2023/09/20 07:26:38;;;;;;;0.08;0.08;;;;;;;22.63;58.98;100112.34;5350334;26;33422;-81
2023/09/20 07:29:06;;;;;;;0.60;0.28;;;;;;;22.81;58.36;100110.72;5350179;26;33076;-80
2023/09/20 07:31:36;;;;;;;0.70;0.70;;;;;;;22.99;57.63;100109.09;5348959;26;34001;-80
2023/09/20 07:34:04;;;;;;;0.20;0.10;;;;;;;23.43;55.81;100112.25;5349902;26;34226;-80
2023/09/20 07:36:36;;;;;;;0.35;0.25;;;;;;;23.39;56.68;100109.97;5349225;26;32947;-80
2023/09/20 07:39:08;;;;;;;0.45;0.30;;;;;;;23.46;55.79;100111.13;5350754;26;34207;-80
2023/09/20 07:41:36;;;;;;;1.65;1.00;;;;;;;23.53;55.53;100114.94;5367585;26;33692;-79
2023/09/20 07:44:07;;;;;;;0.30;0.30;;;;;;;23.78;55.77;100108.13;5350205;26;33202;-79
2023/09/20 07:46:39;;;;;;;0.00;0.00;;;;;;;24.05;53.34;100104.69;5349047;26;34060;-79
2023/09/20 07:49:09;;;;;;;0.20;0.20;;;;;;;23.97;55.40;100105.37;5388319;26;34470;-80
2023/09/20 07:51:39;;;;;;;0.77;0.73;;;;;;;24.05;54.37;100106.53;5368510;26;34397;-80
2023/09/20 07:54:10;;;;;;;1.65;0.73;;;;;;;24.22;53.32;100103.06;5350532;26;33323;-80
2023/09/20 07:56:40;;;;;;;0.35;0.35;;;;;;;24.34;52.56;100101.87;5350135;26;33878;-80
2023/09/20 07:59:13;;;;;;;0.00;0.00;;;;;;;24.59;52.60;100097.66;5368270;26;34887;-80
2023/09/20 08:01:41;;;;;;;0.00;0.00;;;;;;;24.78;51.05;100100.28;5368309;26;33627;-80
2023/09/20 08:04:10;;;;;;;0.43;0.37;;;;;;;24.93;50.10;100103.31;5349958;26;34837;-80
2023/09/20 08:06:40;;;;;;;0.32;0.32;;;;;;;25.00;49.27;100107.09;5367602;26;33564;-81
2023/09/20 08:09:08;;;;;;;0.73;0.30;;;;;;;25.22;47.82;100103.16;5349918;26;33094;-80
2023/09/20 08:11:37;;;;;;;0.25;0.25;;;;;;;25.29;47.46;100098.81;5349822;26;33541;-80
2023/09/20 08:14:05;;;;;;;0.10;0.10;;;;;;;25.31;48.10;100101.37;5368405;26;34772;-80
2023/09/20 08:16:33;;;;;;;0.10;0.10;;;;;;;25.44;47.31;100091.00;5349424;26;33719;-80
2023/09/20 08:19:21;;;;;;;0.30;0.30;;;;;;;25.42;48.32;100092.19;5352790;26;33187;-80
2023/09/20 08:21:50;;;;;;;1.75;0.73;;;;;;;25.24;47.80;100106.53;5366707;26;33620;-80
2023/09/20 09:00:32;;;;;;;2.92;0.35;;;;;;;27.38;43.75;100075.09;5351827;26;34130;-81
2023/09/20 09:03:03;;;;;;;4.07;0.40;;;;;;;26.92;43.39;100079.22;5367521;26;34867;-81
2023/09/20 09:05:33;;;;;;;0.40;0.40;;;;;;;27.14;43.21;100080.47;5368328;26;33066;-81
2023/09/20 09:08:02;;;;;;;0.30;0.22;;;;;;;27.29;43.49;100078.81;5368348;26;33697;-81
2023/09/20 09:10:30;;;;;;;0.35;0.25;;;;;;;27.33;43.41;100068.47;5349176;26;34473;-81
2023/09/20 09:12:58;;;;;;;0.17;0.17;;;;;;;27.59;43.14;100071.88;5331484;26;33297;-81
2023/09/20 09:15:27;;;;;;;0.20;0.20;;;;;;;27.77;42.65;100056.31;5367939;26;33782;-81
2023/09/20 09:17:56;;;;;;;0.32;0.32;;;;;;;27.98;42.93;100063.03;5330794;26;33198;-81
2023/09/20 09:20:26;;;;;;;0.28;0.28;;;;;;;27.64;42.96;100044.25;5349477;26;33302;-82
2023/09/20 09:22:54;;;;;;;0.50;0.22;;;;;;;28.18;42.32;100045.34;5349734;26;33078;-81
2023/09/20 09:25:29;;;;;;;0.55;0.35;;;;;;;28.37;41.67;100044.09;5348932;26;33641;-81
2023/09/20 09:27:57;;;;;;;0.37;0.37;;;;;;;28.43;41.04;100047.97;5350309;26;33533;-81
2023/09/20 09:30:26;;;;;;;2.83;0.77;;;;;;;28.90;39.84;100038.91;5367863;26;33798;-81
2023/09/20 09:32:54;;;;;;;0.20;0.20;;;;;;;28.63;39.52;100032.97;5349583;26;33155;-82
2023/09/20 09:35:23;;;;;;;4.68;0.62;;;;;;;29.01;39.98;100023.06;5349751;26;33643;-81
2023/09/20 09:37:53;;;;;;;0.10;0.10;;;;;;;28.91;39.24;100027.00;5350026;26;32921;-81
2023/09/20 09:40:21;;;;;;;0.75;0.37;;;;;;;29.36;38.16;100020.75;5330759;26;33010;-82
2023/09/20 09:42:50;;;;;;;0.52;0.20;;;;;;;29.49;37.63;100017.41;5331090;26;34619;-81
2023/09/20 09:45:33;;;;;;;0.20;0.20;;;;;;;29.59;38.07;100015.31;5349450;26;33142;-81
2023/09/20 09:48:06;;;;;;;0.13;0.10;;;;;;;29.59;37.28;100020.75;5366368;26;32903;-81
2023/09/20 09:50:38;;;;;;;0.10;0.10;;;;;;;29.62;36.99;100004.03;5366890;26;35308;-81
2023/09/20 09:53:08;;;;;;;0.30;0.30;;;;;;;29.71;36.59;100002.91;5349994;26;33153;-81
2023/09/20 09:55:40;;;;;;;0.05;0.05;;;;;;;29.39;37.81;100006.78;5330230;26;32438;-81
2023/09/20 09:58:09;;;;;;;0.15;0.10;;;;;;;29.60;37.09;100011.56;5331243;26;33491;-81
2023/09/20 10:00:39;;;;;;;0.25;0.25;;;;;;;29.79;37.54;100004.72;5368129;26;33989;-81
2023/09/20 10:03:18;;;;;;;1.02;0.22;;;;;;;29.77;37.54;100004.06;5330756;26;34007;-81
2023/09/20 10:05:46;;;;;;;0.10;0.05;;;;;;;29.66;38.06;100001.78;5367655;26;33707;-81
2023/09/20 10:08:18;;;;;;;0.17;0.17;;;;;;;29.71;37.16;100002.06;5349382;26;33492;-81
2023/09/20 10:10:45;;;;;;;0.00;0.00;;;;;;;29.68;36.49;99997.88;5349122;26;33064;-81
2023/09/20 10:13:14;;;;;;;0.10;0.10;;;;;;;30.06;36.12;99995.06;5367921;26;33839;-81
2023/09/20 10:15:43;;;;;;;1.75;0.40;;;;;;;29.61;36.65;99996.91;5350099;26;33664;-82
2023/09/20 10:18:11;;;;;;;0.40;0.32;;;;;;;30.02;36.38;99996.47;5349416;26;33590;-82
2023/09/20 10:21:10;;;;;;;0.15;0.08;;;;;;;29.30;36.80;100006.00;5349697;26;33553;-81
2023/09/20 10:23:38;;;;;;;0.00;0.00;;;;;;;29.32;36.74;99997.66;5350714;26;34191;-81
2023/09/20 10:26:12;;;;;;;0.10;0.10;;;;;;;29.62;35.74;99990.44;5366507;26;32757;-81
2023/09/20 10:28:42;;;;;;;1.70;0.17;;;;;;;29.51;36.22;99996.28;5388349;26;33569;-81
2023/09/20 10:31:17;;;;;;;0.00;0.00;;;;;;;30.18;35.59;99993.56;5349512;26;33018;-81
2023/09/20 10:33:55;;;;;;;0.20;0.20;;;;;;;30.32;35.24;99984.53;5367300;26;34892;-82
2023/09/20 10:36:25;;;;;;;0.45;0.20;;;;;;;30.08;35.37;99984.81;5350223;26;32598;-81
2023/09/20 10:39:19;;;;;;;0.10;0.10;;;;;;;29.83;36.37;99987.84;5347509;26;32898;-81
2023/09/20 10:41:49;;;;;;;0.65;0.52;;;;;;;30.24;35.46;99981.06;5365199;26;33694;-81
2023/09/20 10:44:28;;;;;;;0.25;0.15;;;;;;;30.37;34.54;99970.34;5328282;26;32912;-81
2023/09/20 10:47:04;;;;;;;0.52;0.52;;;;;;;30.45;33.96;99974.84;5346922;26;33308;-82
2023/09/20 10:49:40;;;;;;;0.00;0.00;;;;;;;30.97;32.40;99977.34;5365057;26;33814;-81
2023/09/20 10:52:11;;;;;;;0.00;0.00;;;;;;;30.97;32.58;99974.59;5385819;26;34713;-81
2023/09/20 10:54:39;;;;;;;0.00;0.00;;;;;;;30.76;32.25;99969.97;5348892;26;34096;-81
2023/09/20 10:57:09;;;;;;;0.40;0.40;;;;;;;30.82;32.20;99969.22;5349434;26;33490;-81
2023/09/20 10:59:41;;;;;;;1.08;0.82;;;;;;;31.44;32.00;99966.84;5350705;26;32892;-81
2023/09/20 11:02:12;;;;;;;0.00;0.00;;;;;;;31.00;31.70;99960.59;5351962;26;32917;-81
2023/09/20 11:04:41;;;;;;;0.22;0.17;;;;;;;31.01;31.15;99948.63;5333221;26;34230;-81
2023/09/20 11:07:09;;;;;;;1.15;0.35;;;;;;;30.68;32.37;99956.47;5369851;26;34015;-81
2023/09/20 11:09:42;;;;;;;0.00;0.00;;;;;;;30.88;31.55;99950.38;5370211;26;34003;-81
2023/09/20 11:12:11;;;;;;;1.20;0.20;;;;;;;31.33;31.55;99950.00;5352205;26;32617;-81
2023/09/20 11:14:41;;;;;;;0.20;0.15;;;;;;;30.55;32.03;99950.84;5370700;26;33797;-82
2023/09/20 11:17:13;;;;;;;0.57;0.35;;;;;;;31.20;31.75;99944.41;5351484;26;32836;-82
2023/09/20 11:19:43;;;;;;;0.10;0.10;;;;;;;31.48;30.89;99935.41;5369873;26;35579;-82
2023/09/20 11:22:14;;;;;;;0.00;0.00;;;;;;;31.84;29.79;99927.88;5351357;26;33882;-82
2023/09/20 11:24:42;;;;;;;0.40;0.40;;;;;;;31.28;31.51;99929.78;5368823;26;34149;-81
2023/09/20 11:27:11;;;;;;;0.00;0.00;;;;;;;30.76;32.49;99929.09;5370443;26;33462;-81
2023/09/20 11:29:48;;;;;;;1.12;0.35;;;;;;;31.16;31.58;99934.91;5351831;26;34735;-82
2023/09/20 11:32:21;;;;;;;0.20;0.20;;;;;;;31.30;31.23;99928.56;5351398;26;33082;-81
2023/09/20 11:34:50;;;;;;;0.13;0.10;;;;;;;31.32;31.11;99933.81;5370799;26;33802;-82
2023/09/20 11:37:19;;;;;;;0.85;0.20;;;;;;;31.37;31.97;99931.31;5351399;26;33563;-82
2023/09/20 11:39:50;;;;;;;0.60;0.40;;;;;;;31.50;31.52;99933.31;5332841;26;32845;-82
2023/09/20 11:42:33;;;;;;;0.10;0.10;;;;;;;31.52;31.28;99931.22;5351388;26;34039;-81
2023/09/20 11:45:07;;;;;;;0.65;0.40;;;;;;;32.17;31.06;99937.28;5351976;26;33899;-81
2023/09/20 11:47:56;;;;;;;0.13;0.10;;;;;;;32.49;30.34;99927.53;5327146;26;33286;-82
2023/09/20 11:50:27;;;;;;;0.00;0.00;;;;;;;31.94;30.91;99926.66;5305101;26;33034;-82
2023/09/20 11:52:56;;;;;;;0.22;0.22;;;;;;;32.21;31.77;99911.22;5323987;26;33482;-81
2023/09/20 11:58:59;;;;;;;0.20;0.20;;;;;;;32.45;29.27;99909.87;5342490;26;35194;-81
2023/09/20 12:01:33;;;;;;;3.22;0.45;;;;;;;32.32;29.98;99906.00;5323630;26;34108;-82
2023/09/20 12:04:01;;;;;;;0.00;0.00;;;;;;;32.30;29.45;99905.38;5305270;26;34214;-82
2023/09/20 12:06:29;;;;;;;0.28;0.15;;;;;;;32.53;28.90;99901.47;5321380;26;33949;-82
2023/09/20 12:09:00;;;;;;;0.30;0.17;;;;;;;32.91;29.23;99892.72;5320311;26;34272;-82
2023/09/20 12:11:28;;;;;;;0.17;0.17;;;;;;;32.81;29.11;99891.22;5301521;26;33207;-82
2023/09/20 12:13:56;;;;;;;1.23;0.10;;;;;;;33.07;28.49;99886.81;5300206;26;34117;-82
2023/09/20 12:16:24;;;;;;;0.22;0.10;;;;;;;33.13;28.18;99885.97;5319914;26;34441;-83
2023/09/20 12:18:54;;;;;;;0.20;0.13;;;;;;;32.76;29.05;99890.12;5300972;26;32709;-82